createdAt,value
2019-03-23T00:01:36.190Z,101588.61
2019-03-23T00:04:26.796Z,101588.38
2019-03-23T00:07:17.664Z,101588.15
2019-03-23T00:10:08.554Z,101582.08
2019-03-23T00:12:59.427Z,101580.41
2019-03-23T00:15:50.318Z,101585.56
2019-03-23T00:18:41.187Z,101584.14
2019-03-23T00:21:31.734Z,101578.80
2019-03-23T00:24:22.748Z,101578.87
2019-03-23T00:27:14.796Z,101584.05
2019-03-23T00:30:05.980Z,101583.53
2019-03-23T00:32:57.118Z,101583.06
2019-03-23T00:35:48.214Z,101575.62
2019-03-23T00:38:39.352Z,101576.73
2019-03-23T00:41:30.371Z,101570.69
2019-03-23T00:44:21.243Z,101568.70
2019-03-23T00:47:12.016Z,101571.47
2019-03-23T00:50:02.801Z,101561.56
2019-03-23T00:52:53.615Z,101562.89
2019-03-23T00:55:44.327Z,101561.15
2019-03-23T00:58:35.099Z,101563.62
2019-03-23T01:01:26.025Z,101565.72
2019-03-23T01:04:16.487Z,101566.94
2019-03-23T01:07:08.171Z,101561.59
2019-03-23T01:09:58.900Z,101559.67
2019-03-23T01:12:50.738Z,101559.76
2019-03-23T01:15:41.485Z,101548.78
2019-03-23T01:18:32.423Z,101552.61
2019-03-23T01:21:23.344Z,101546.80
2019-03-23T01:24:14.064Z,101550.41
2019-03-23T01:27:05.038Z,101547.50
2019-03-23T01:29:56.256Z,101537.04
2019-03-23T01:32:47.146Z,101538.00
2019-03-23T01:35:37.898Z,101536.29
2019-03-23T01:38:28.439Z,101535.61
2019-03-23T01:41:19.362Z,101534.77
2019-03-23T01:44:10.992Z,101531.31
2019-03-23T01:47:01.789Z,101536.95
2019-03-23T01:49:52.536Z,101529.20
2019-03-23T01:52:43.590Z,101532.39
2019-03-23T01:55:35.175Z,101529.02
2019-03-23T01:58:26.032Z,101535.19
2019-03-23T02:01:16.736Z,101530.71
2019-03-23T02:04:07.557Z,101525.40
2019-03-23T02:06:58.130Z,101536.46
2019-03-23T02:09:49.455Z,101527.92
2019-03-23T02:12:40.386Z,101529.17
2019-03-23T02:15:31.420Z,101531.23
2019-03-23T02:18:22.375Z,101527.78
2019-03-23T02:21:13.351Z,101531.47
2019-03-23T02:24:04.136Z,101521.76
2019-03-23T02:26:55.015Z,101527.36
2019-03-23T02:29:45.645Z,101528.70
2019-03-23T02:32:36.510Z,101523.91
2019-03-23T02:35:27.091Z,101527.30
2019-03-23T02:38:20.622Z,101523.27
2019-03-23T02:41:11.143Z,101522.89
2019-03-23T02:44:06.094Z,101526.38
2019-03-23T02:46:56.572Z,101526.55
2019-03-23T02:49:48.003Z,101517.61
2019-03-23T02:52:38.868Z,101520.38
2019-03-23T02:55:29.619Z,101527.25
2019-03-23T02:58:21.789Z,101526.97
2019-03-23T03:01:13.548Z,101521.06
2019-03-23T03:04:04.497Z,101520.70
2019-03-23T03:06:55.779Z,101521.80
2019-03-23T03:09:46.591Z,101525.19
2019-03-23T03:12:37.412Z,101520.41
2019-03-23T03:15:28.187Z,101522.38
2019-03-23T03:18:19.031Z,101519.08
2019-03-23T03:21:09.984Z,101513.80
2019-03-23T03:24:01.025Z,101514.23
2019-03-23T03:26:51.940Z,101511.02
2019-03-23T03:29:42.868Z,101485.10
2019-03-23T03:32:33.687Z,101507.73
2019-03-23T03:35:25.765Z,101511.16
2019-03-23T03:38:16.321Z,101506.70
2019-03-23T03:41:07.118Z,101512.81
2019-03-23T03:43:57.645Z,101513.52
2019-03-23T03:46:48.196Z,101504.80
2019-03-23T03:49:38.942Z,101508.00
2019-03-23T03:52:29.973Z,101510.91
2019-03-23T03:55:20.486Z,101513.89
2019-03-23T03:58:11.339Z,101510.66
2019-03-23T04:01:02.070Z,101509.15
2019-03-23T04:03:52.804Z,101517.08
2019-03-23T04:06:44.138Z,101521.32
2019-03-23T04:09:35.897Z,101522.48
2019-03-23T04:12:26.708Z,101525.42
2019-03-23T04:15:17.779Z,101529.55
2019-03-23T04:18:08.302Z,101528.30
2019-03-23T04:20:59.123Z,101523.25
2019-03-23T04:23:49.947Z,101530.65
2019-03-23T04:26:40.684Z,101521.01
2019-03-23T04:29:31.557Z,101522.17
2019-03-23T04:32:22.677Z,101525.72
2019-03-23T04:35:13.335Z,101530.25
2019-03-23T04:38:03.913Z,101526.47
2019-03-23T04:40:54.744Z,101533.38
2019-03-23T04:43:45.757Z,101534.63
2019-03-23T04:46:36.581Z,101543.81
2019-03-23T04:49:27.430Z,101538.87
2019-03-23T04:52:18.329Z,101547.39
2019-03-23T04:55:10.750Z,101539.89
2019-03-23T04:58:01.819Z,101542.66
2019-03-23T05:00:52.917Z,101544.78
2019-03-23T05:03:45.441Z,101549.83
2019-03-23T05:06:36.315Z,101549.33
2019-03-23T05:09:27.226Z,101547.12
2019-03-23T05:12:18.294Z,101542.81
2019-03-23T05:15:09.032Z,101542.98
2019-03-23T05:17:59.752Z,101545.55
2019-03-23T05:20:50.553Z,101545.70
2019-03-23T05:23:41.346Z,101555.34
2019-03-23T05:26:32.098Z,101546.09
2019-03-23T05:29:22.828Z,101547.66
2019-03-23T05:32:13.602Z,101545.12
2019-03-23T05:35:04.466Z,101545.12
2019-03-23T05:37:55.105Z,101547.47
2019-03-23T05:40:45.922Z,101552.00
2019-03-23T05:43:36.825Z,101540.77
2019-03-23T05:46:28.060Z,101547.09
2019-03-23T05:49:18.927Z,101551.41
2019-03-23T05:52:12.899Z,101547.22
2019-03-23T05:55:04.133Z,101554.77
2019-03-23T05:57:55.841Z,101556.78
2019-03-23T06:00:47.259Z,101553.18
2019-03-23T06:03:38.825Z,101560.61
2019-03-23T06:06:30.431Z,101563.36
2019-03-23T06:09:22.375Z,101566.28
2019-03-23T06:12:13.904Z,101564.44
2019-03-23T06:15:07.303Z,101573.78
2019-03-23T06:17:58.946Z,101572.72
2019-03-23T06:20:50.799Z,101562.87
2019-03-23T06:23:42.368Z,101567.28
2019-03-23T06:26:33.956Z,101565.32
2019-03-23T06:29:25.407Z,101562.62
2019-03-23T06:32:17.031Z,101568.53
2019-03-23T06:35:09.668Z,101562.94
2019-03-23T06:38:00.986Z,101562.17
2019-03-23T06:40:52.482Z,101562.84
2019-03-23T06:43:43.783Z,101558.09
2019-03-23T06:46:35.368Z,101561.32
2019-03-23T06:49:26.517Z,101562.66
2019-03-23T06:52:17.932Z,101562.31
2019-03-23T06:55:09.337Z,101563.38
2019-03-23T06:58:00.429Z,101567.47
2019-03-23T07:00:51.747Z,101566.17
2019-03-23T07:03:43.103Z,101569.25
2019-03-23T07:06:34.482Z,101571.26
2019-03-23T07:09:25.879Z,101568.48
2019-03-23T07:12:17.111Z,101568.48
2019-03-23T07:15:19.404Z,101567.28
2019-03-23T07:18:02.159Z,101566.30
2019-03-23T07:20:53.575Z,101558.00
2019-03-23T07:23:46.163Z,101563.57
2019-03-23T07:26:37.541Z,101565.04
2019-03-23T07:29:29.028Z,101565.59
2019-03-23T07:32:20.433Z,101559.63
2019-03-23T07:35:12.126Z,101557.22
2019-03-23T07:38:03.651Z,101552.64
2019-03-23T07:40:54.853Z,101556.48
2019-03-23T07:43:46.002Z,101544.59
2019-03-23T07:46:37.370Z,101543.66
2019-03-23T07:49:28.642Z,101539.61
2019-03-23T07:52:20.111Z,101538.90
2019-03-23T07:55:13.225Z,101535.11
2019-03-23T07:58:04.705Z,101538.37
2019-03-23T08:00:56.140Z,101538.78
2019-03-23T08:03:47.510Z,101534.98
2019-03-23T08:06:39.011Z,101535.69
2019-03-23T08:09:37.568Z,101530.84
2019-03-23T08:12:23.346Z,101519.20
2019-03-23T08:15:14.545Z,101516.91
2019-03-23T08:18:06.049Z,101516.91
2019-03-23T08:20:57.557Z,101530.16
2019-03-23T08:23:48.956Z,101523.03
2019-03-23T08:26:40.791Z,101525.86
2019-03-23T08:29:32.092Z,101523.42
2019-03-23T08:32:23.451Z,101520.49
2019-03-23T08:35:14.872Z,101517.12
2019-03-23T08:38:06.457Z,101513.34
2019-03-23T08:40:57.924Z,101516.44
2019-03-23T08:43:49.485Z,101512.83
2019-03-23T08:46:41.036Z,101510.50
2019-03-23T08:49:33.728Z,101506.12
2019-03-23T08:52:24.537Z,101496.00
2019-03-23T08:55:15.546Z,101492.77
2019-03-23T08:58:06.717Z,101486.59
2019-03-23T09:00:58.518Z,101489.94
2019-03-23T09:03:52.607Z,101484.44
2019-03-23T09:06:41.835Z,101483.59
2019-03-23T09:09:33.381Z,101480.05
2019-03-23T09:12:24.976Z,101477.21
2019-03-23T09:15:16.382Z,101465.37
2019-03-23T09:18:07.556Z,101468.80
2019-03-23T09:20:58.923Z,101469.05
2019-03-23T09:23:50.344Z,101457.31
2019-03-23T09:26:41.672Z,101468.16
2019-03-23T09:29:33.045Z,101466.55
2019-03-23T09:32:24.316Z,101459.56
2019-03-23T09:35:16.037Z,101450.91
2019-03-23T09:38:07.445Z,101454.28
2019-03-23T09:40:58.722Z,101455.95
2019-03-23T09:43:51.129Z,101445.97
2019-03-23T09:46:43.504Z,101455.06
2019-03-23T09:49:34.236Z,101453.81
2019-03-23T09:52:25.147Z,101449.27
2019-03-23T09:55:15.928Z,101455.87
2019-03-23T09:58:06.750Z,101441.30
2019-03-23T10:00:57.531Z,101438.87
2019-03-23T10:03:48.434Z,101443.86
2019-03-23T10:06:39.261Z,101437.70
2019-03-23T10:09:30.176Z,101434.77
2019-03-23T10:12:20.902Z,101442.95
2019-03-23T10:15:11.978Z,101429.58
2019-03-23T10:18:03.099Z,101425.92
2019-03-23T10:20:54.357Z,101427.50
2019-03-23T10:23:44.985Z,101431.36
2019-03-23T10:26:35.945Z,101423.87
2019-03-23T10:29:26.676Z,101423.67
2019-03-23T10:32:17.672Z,101416.68
2019-03-23T10:35:09.091Z,101410.76
2019-03-23T10:37:59.987Z,101414.80
2019-03-23T10:40:53.403Z,101407.22
2019-03-23T10:43:44.245Z,101401.73
2019-03-23T10:46:35.042Z,101394.28
2019-03-23T10:49:30.289Z,101396.08
2019-03-23T10:52:26.238Z,101391.66
2019-03-23T10:55:18.877Z,101389.59
2019-03-23T10:58:09.850Z,101387.33
2019-03-23T11:01:00.665Z,101381.67
2019-03-23T11:03:51.577Z,101383.73
2019-03-23T11:06:42.405Z,101391.23
2019-03-23T11:09:33.351Z,101382.52
2019-03-23T11:12:24.198Z,101375.81
2019-03-23T11:15:16.547Z,101387.76
2019-03-23T11:18:07.421Z,101372.07
2019-03-23T11:21:00.116Z,101366.63
2019-03-23T11:23:50.799Z,101364.03
2019-03-23T11:26:41.526Z,101367.66
2019-03-23T11:29:32.312Z,101366.09
2019-03-23T11:32:23.137Z,101356.91
2019-03-23T11:35:14.122Z,101355.78
2019-03-23T11:38:05.046Z,101349.95
2019-03-23T11:40:55.700Z,101345.34
2019-03-23T11:43:46.533Z,101340.05
2019-03-23T11:46:37.814Z,101336.72
2019-03-23T11:49:28.777Z,101334.36
2019-03-23T11:52:19.646Z,101329.53
2019-03-23T11:55:10.806Z,101328.91
2019-03-23T11:58:02.040Z,101321.24
2019-03-23T12:00:52.956Z,101315.57
2019-03-23T12:03:44.122Z,101316.16
2019-03-23T12:06:34.890Z,101305.22
2019-03-23T12:09:26.025Z,101296.45
2019-03-23T12:12:16.977Z,101293.38
2019-03-23T12:15:08.664Z,101294.20
2019-03-23T12:17:59.502Z,101291.52
2019-03-23T12:20:50.339Z,101288.14
2019-03-23T12:23:41.046Z,101278.10
2019-03-23T12:26:31.800Z,101275.23
2019-03-23T12:29:22.695Z,101272.13
2019-03-23T12:32:13.637Z,101273.99
2019-03-23T12:35:04.421Z,101272.02
2019-03-23T12:37:55.566Z,101269.21
2019-03-23T12:40:46.643Z,101270.98
2019-03-23T12:43:37.536Z,101269.95
2019-03-23T12:46:28.342Z,101268.05
2019-03-23T12:49:19.102Z,101265.17
2019-03-23T12:52:09.611Z,101268.33
2019-03-23T12:55:00.553Z,101264.69
2019-03-23T12:57:51.220Z,101261.95
2019-03-23T13:00:43.461Z,101256.08
2019-03-23T13:03:33.910Z,101253.81
2019-03-23T13:06:25.042Z,101249.77
2019-03-23T13:09:15.793Z,101243.19
2019-03-23T13:12:06.671Z,101233.95
2019-03-23T13:14:58.118Z,101233.31
2019-03-23T13:17:49.032Z,101221.80
2019-03-23T13:20:39.942Z,101215.72
2019-03-23T13:23:30.993Z,101212.02
2019-03-23T13:26:21.919Z,101213.06
2019-03-23T13:29:12.544Z,101216.80
2019-03-23T13:32:03.711Z,101219.75
2019-03-23T13:34:54.607Z,101219.70
2019-03-23T13:37:45.624Z,101213.06
2019-03-23T13:40:36.497Z,101207.07
2019-03-23T13:43:27.352Z,101215.14
2019-03-23T13:46:18.432Z,101196.00
2019-03-23T13:49:08.991Z,101207.14
2019-03-23T13:52:01.770Z,101208.23
2019-03-23T13:54:52.581Z,101207.75
2019-03-23T13:57:43.480Z,101192.02
2019-03-23T14:00:34.099Z,101195.91
2019-03-23T14:03:25.038Z,101194.88
2019-03-23T14:06:15.854Z,101185.37
2019-03-23T14:09:10.641Z,101190.22
2019-03-23T14:12:02.802Z,101185.20
2019-03-23T14:14:53.671Z,101176.37
2019-03-23T14:17:44.613Z,101173.50
2019-03-23T14:20:35.448Z,101171.14
2019-03-23T14:23:26.421Z,101168.02
2019-03-23T14:26:17.501Z,101161.42
2019-03-23T14:29:12.291Z,101159.91
2019-03-23T14:32:03.224Z,101157.94
2019-03-23T14:34:53.767Z,101126.13
2019-03-23T14:37:44.614Z,101148.09
2019-03-23T14:40:35.598Z,101142.55
2019-03-23T14:43:26.387Z,101140.70
2019-03-23T14:46:17.313Z,101138.30
2019-03-23T14:49:08.237Z,101132.81
2019-03-23T14:51:59.198Z,101140.27
2019-03-23T14:54:49.972Z,101134.25
2019-03-23T14:57:40.712Z,101123.02
2019-03-23T15:00:33.041Z,101117.30
2019-03-23T15:03:26.042Z,101117.11
2019-03-23T15:06:16.934Z,101118.02
2019-03-23T15:09:08.483Z,101119.36
2019-03-23T15:11:59.163Z,101114.99
2019-03-23T15:14:50.136Z,101112.91
2019-03-23T15:17:48.461Z,101113.53
2019-03-23T15:20:33.199Z,101111.09
2019-03-23T15:23:23.727Z,101113.19
2019-03-23T15:26:14.506Z,101110.05
2019-03-23T15:29:05.327Z,101111.17
2019-03-23T15:31:56.089Z,101110.66
2019-03-23T15:34:46.987Z,101105.31
2019-03-23T15:37:37.792Z,101114.97
2019-03-23T15:40:28.676Z,101113.97
2019-03-23T15:43:19.501Z,101107.77
2019-03-23T15:46:10.429Z,101105.70
2019-03-23T15:49:01.405Z,101110.23
2019-03-23T15:51:53.014Z,101111.36
2019-03-23T15:54:44.020Z,101109.66
2019-03-23T15:57:34.855Z,101107.09
2019-03-23T16:00:25.400Z,101108.48
2019-03-23T16:03:16.105Z,101102.84
2019-03-23T16:06:06.660Z,101103.34
2019-03-23T16:08:57.538Z,101109.81
2019-03-23T16:11:48.402Z,101112.15
2019-03-23T16:14:39.229Z,101111.91
2019-03-23T16:17:29.875Z,101114.59
2019-03-23T16:20:20.625Z,101116.41
2019-03-23T16:23:11.465Z,101124.36
2019-03-23T16:26:02.309Z,101119.58
2019-03-23T16:28:53.130Z,101116.14
2019-03-23T16:31:44.419Z,101119.46
2019-03-23T16:34:35.428Z,101116.53
2019-03-23T16:37:26.130Z,101123.11
2019-03-23T16:40:16.705Z,101121.56
2019-03-23T16:43:07.316Z,101119.59
2019-03-23T16:45:58.138Z,101118.73
2019-03-23T16:48:48.983Z,101127.50
2019-03-23T16:51:39.824Z,101126.28
2019-03-23T16:54:30.604Z,101122.72
2019-03-23T16:57:21.434Z,101121.72
2019-03-23T17:00:14.327Z,101128.41
2019-03-23T17:03:05.438Z,101133.30
2019-03-23T17:05:56.078Z,101135.03
2019-03-23T17:08:46.929Z,101131.72
2019-03-23T17:11:37.914Z,101129.77
2019-03-23T17:14:28.765Z,101123.53
2019-03-23T17:17:19.434Z,101128.58
2019-03-23T17:20:10.194Z,101130.41
2019-03-23T17:23:02.240Z,101135.06
2019-03-23T17:25:53.321Z,101128.43
2019-03-23T17:28:44.448Z,101126.46
2019-03-23T17:31:36.454Z,101118.28
2019-03-23T17:34:27.753Z,101122.44
2019-03-23T17:37:18.531Z,101123.89
2019-03-23T17:40:09.166Z,101124.13
2019-03-23T17:43:05.816Z,101114.73
2019-03-23T17:45:53.524Z,101117.51
2019-03-23T17:48:44.188Z,101119.20
2019-03-23T17:51:35.059Z,101114.84
2019-03-23T17:54:25.948Z,101121.89
2019-03-23T17:57:16.813Z,101123.98
2019-03-23T18:00:08.826Z,101121.45
2019-03-23T18:02:59.764Z,101125.33
2019-03-23T18:05:50.582Z,101123.03
2019-03-23T18:08:41.388Z,101119.00
2019-03-23T18:11:32.209Z,101123.66
2019-03-23T18:14:22.996Z,101112.91
2019-03-23T18:17:13.710Z,101118.16
2019-03-23T18:20:04.888Z,101119.50
2019-03-23T18:22:56.098Z,101113.66
2019-03-23T18:25:47.220Z,101110.25
2019-03-23T18:28:38.186Z,101114.30
2019-03-23T18:31:29.030Z,101107.60
2019-03-23T18:34:21.001Z,101107.84
2019-03-23T18:37:12.147Z,101112.22
2019-03-23T18:40:02.969Z,101109.28
2019-03-23T18:42:53.790Z,101103.08
2019-03-23T18:45:44.644Z,101102.56
2019-03-23T18:48:35.321Z,101105.73
2019-03-23T18:51:26.300Z,101104.51
2019-03-23T18:54:17.208Z,101107.44
2019-03-23T18:57:08.151Z,101114.91
2019-03-23T18:59:59.150Z,101119.56
2019-03-23T19:02:49.925Z,101117.84
2019-03-23T19:05:40.792Z,101128.27
2019-03-23T19:08:31.608Z,101128.75
2019-03-23T19:11:22.607Z,101132.78
2019-03-23T19:14:13.430Z,101138.34
2019-03-23T19:17:04.086Z,101137.11
2019-03-23T19:19:55.144Z,101138.66
2019-03-23T19:22:46.123Z,101146.66
2019-03-23T19:25:38.435Z,101148.08
2019-03-23T19:28:29.237Z,101148.48
2019-03-23T19:31:19.966Z,101147.84
2019-03-23T19:34:10.790Z,101155.03
2019-03-23T19:37:01.493Z,101159.88
2019-03-23T19:39:52.752Z,101156.80
2019-03-23T19:42:43.627Z,101169.92
2019-03-23T19:45:34.327Z,101175.98
2019-03-23T19:48:25.173Z,101175.92
2019-03-23T19:51:16.101Z,101174.39
2019-03-23T19:54:06.941Z,101177.35
2019-03-23T19:56:57.789Z,101181.20
2019-03-23T19:59:48.748Z,101168.47
2019-03-23T20:02:39.434Z,101178.91
2019-03-23T20:05:30.379Z,101179.54
2019-03-23T20:08:21.602Z,101182.91
2019-03-23T20:11:12.527Z,101179.70
2019-03-23T20:14:03.363Z,101175.95
2019-03-23T20:16:54.123Z,101180.45
2019-03-23T20:19:44.717Z,101182.08
2019-03-23T20:22:35.681Z,101180.34
2019-03-23T20:25:26.306Z,101184.70
2019-03-23T20:28:17.609Z,101192.80
2019-03-23T20:31:08.460Z,101190.27
2019-03-23T20:33:59.271Z,101189.43
2019-03-23T20:36:51.173Z,101189.43
2019-03-23T20:39:41.895Z,101189.43
2019-03-23T20:42:32.854Z,101181.46
2019-03-23T20:45:29.415Z,101191.28
2019-03-23T20:48:20.187Z,101185.59
2019-03-23T20:51:11.040Z,101180.58
2019-03-23T20:54:01.672Z,101187.65
2019-03-23T20:56:53.063Z,101186.67
2019-03-23T20:59:44.461Z,101186.91
2019-03-23T21:02:34.987Z,101184.34
2019-03-23T21:05:33.912Z,101191.80
2019-03-23T21:08:18.769Z,101188.73
2019-03-23T21:11:09.586Z,101188.84
2019-03-23T21:14:00.711Z,101178.38
2019-03-23T21:16:51.749Z,101194.51
2019-03-23T21:19:42.366Z,101196.35
2019-03-23T21:22:33.549Z,101192.25
2019-03-23T21:25:24.394Z,101205.56
2019-03-23T21:28:15.407Z,101203.25
2019-03-23T21:31:06.317Z,101214.78
2019-03-23T21:33:57.155Z,101218.00
2019-03-23T21:36:47.965Z,101220.27
2019-03-23T21:39:38.639Z,101227.78
2019-03-23T21:42:29.451Z,101232.67
2019-03-23T21:45:20.064Z,101241.55
2019-03-23T21:48:10.816Z,101225.02
2019-03-23T21:51:01.729Z,101256.20
2019-03-23T21:53:52.350Z,101256.75
2019-03-23T21:56:44.483Z,101253.48
2019-03-23T21:59:35.451Z,101267.64
2019-03-23T22:02:26.166Z,101269.47
2019-03-23T22:05:17.087Z,101279.87
2019-03-23T22:08:07.740Z,101279.05
2019-03-23T22:10:58.510Z,101278.96
2019-03-23T22:13:49.348Z,101292.92
2019-03-23T22:16:40.211Z,101291.80
2019-03-23T22:19:31.111Z,101291.33
2019-03-23T22:22:21.855Z,101288.64
2019-03-23T22:25:13.176Z,101291.79
2019-03-23T22:28:03.674Z,101288.17
2019-03-23T22:30:54.616Z,101296.77
2019-03-23T22:33:45.748Z,101294.56
2019-03-23T22:36:36.529Z,101293.42
2019-03-23T22:39:29.028Z,101299.64
2019-03-23T22:42:19.679Z,101290.84
2019-03-23T22:45:10.586Z,101294.66
2019-03-23T22:48:01.527Z,101297.54
2019-03-23T22:50:52.549Z,101296.88
2019-03-23T22:53:43.650Z,101308.61
2019-03-23T22:56:35.294Z,101307.67
2019-03-23T22:59:26.270Z,101310.55
2019-03-23T23:02:17.120Z,101314.93
2019-03-23T23:05:08.418Z,101307.09
2019-03-23T23:07:59.249Z,101319.61
2019-03-23T23:10:50.111Z,101319.61
2019-03-23T23:13:40.944Z,101330.31
2019-03-23T23:16:31.811Z,101330.77
2019-03-23T23:19:22.639Z,101329.63
2019-03-23T23:22:13.766Z,101327.52
2019-03-23T23:25:05.880Z,101325.92
2019-03-23T23:27:56.640Z,101321.80
2019-03-23T23:30:47.164Z,101327.92
2019-03-23T23:33:38.130Z,101293.79
2019-03-23T23:36:29.459Z,101319.13
2019-03-23T23:39:20.335Z,101323.12
2019-03-23T23:42:11.331Z,101325.78
2019-03-23T23:45:02.445Z,101331.70
2019-03-23T23:47:53.364Z,101329.80
2019-03-23T23:50:44.070Z,101338.02
2019-03-23T23:53:34.987Z,101340.12
2019-03-23T23:56:25.647Z,101338.79
2019-03-23T23:59:16.376Z,101338.95
